Time;durP1;ratioP1;P1;durP2;ratioP2;P2;SDS_P1;SDS_P2;PMS_P1;PMS_P2;Temp;Humidity;BMP_temperature;BMP_pressure;BME280_temperature;BME280_humidity;BME280_pressure;Samples;Min_cycle;Max_cycle;Signal;HPM_P1;HPM_P2
2023/12/08 00:00:36;;;;;;;8.15;7.55;;;;;;;;;;5024098;28;20057;-74
2023/12/08 00:03:06;;;;;;;11.68;10.98;;;;;;;;;;5024601;28;20053;-76
2023/12/08 00:05:38;;;;;;;12.43;11.48;;;;;;;;;;5033265;28;20449;-75
2023/12/08 00:08:09;;;;;;;8.40;7.70;;;;;;;;;;5032233;28;20054;-74
2023/12/08 00:10:39;;;;;;;13.80;12.80;;;;;;;;;;5032872;28;20650;-75
2023/12/08 00:13:11;;;;;;;8.70;8.02;;;;;;;;;;5034933;28;20041;-76
2023/12/08 00:15:41;;;;;;;10.55;9.48;;;;;;;;;;5033421;28;20046;-75
2023/12/08 00:18:12;;;;;;;26.85;24.63;;;;;;;;;;5033642;28;20060;-74
2023/12/08 00:20:42;;;;;;;13.77;12.60;;;;;;;;;;5034610;28;20049;-73
2023/12/08 00:23:12;;;;;;;10.82;9.77;;;;;;;;;;5023191;28;20044;-75
2023/12/08 00:25:43;;;;;;;9.93;8.18;;;;;;;;;;5023188;28;20057;-74
2023/12/08 00:28:13;;;;;;;9.88;8.73;;;;;;;;;;5023502;28;20049;-74
2023/12/08 00:30:45;;;;;;;20.38;18.55;;;;;;;;;;5023654;28;20049;-75
2023/12/08 00:33:16;;;;;;;11.15;8.70;;;;;;;;;;5023143;28;20046;-75
2023/12/08 00:35:48;;;;;;;16.10;11.40;;;;;;;;;;5022775;28;20606;-75
2023/12/08 00:38:19;;;;;;;12.68;10.93;;;;;;;;;;5022752;28;20077;-76
2023/12/08 00:40:50;;;;;;;13.27;12.20;;;;;;;;;;5031502;28;20655;-77
2023/12/08 00:43:20;;;;;;;17.30;10.20;;;;;;;;;;5027337;28;20048;-76
2023/12/08 00:45:50;;;;;;;9.23;8.32;;;;;;;;;;5022858;28;20049;-76
2023/12/08 00:48:20;;;;;;;9.43;7.43;;;;;;;;;;5021935;28;20053;-76
2023/12/08 00:50:51;;;;;;;12.70;8.85;;;;;;;;;;5038729;28;20041;-75
2023/12/08 00:53:21;;;;;;;12.18;8.63;;;;;;;;;;5043119;28;20049;-75
2023/12/08 00:55:51;;;;;;;9.23;8.23;;;;;;;;;;5043686;28;20045;-74
2023/12/08 00:58:23;;;;;;;11.30;8.32;;;;;;;;;;5042552;28;20052;-74
2023/12/08 01:00:53;;;;;;;9.93;8.82;;;;;;;;;;5042906;28;20053;-75
2023/12/08 01:03:23;;;;;;;14.52;11.20;;;;;;;;;;5043081;28;20385;-74
2023/12/08 01:05:54;;;;;;;9.32;7.80;;;;;;;;;;5042669;28;20044;-75
2023/12/08 01:08:24;;;;;;;9.88;8.85;;;;;;;;;;5041292;28;20048;-74
2023/12/08 01:10:54;;;;;;;12.68;11.45;;;;;;;;;;5040829;28;20052;-74
2023/12/08 01:13:25;;;;;;;12.18;11.07;;;;;;;;;;5041533;28;20718;-75
2023/12/08 01:15:55;;;;;;;10.88;9.38;;;;;;;;;;5042148;28;20049;-74
2023/12/08 01:18:25;;;;;;;11.20;8.38;;;;;;;;;;5041845;28;20045;-74
2023/12/08 01:20:55;;;;;;;13.63;12.38;;;;;;;;;;5041880;28;20048;-76
2023/12/08 01:23:26;;;;;;;18.20;9.23;;;;;;;;;;5041630;28;20048;-74
2023/12/08 01:25:57;;;;;;;13.32;10.85;;;;;;;;;;5042992;28;20076;-75
2023/12/08 01:28:28;;;;;;;9.27;8.50;;;;;;;;;;5042211;28;20079;-74
2023/12/08 01:30:59;;;;;;;11.52;10.40;;;;;;;;;;5040888;28;20053;-75
2023/12/08 01:33:30;;;;;;;11.98;10.77;;;;;;;;;;5042276;28;20366;-74
2023/12/08 01:36:01;;;;;;;10.63;8.77;;;;;;;;;;5042656;28;20048;-74
2023/12/08 01:38:51;;;;;;;9.23;8.32;;;;;;;;;;5041759;28;20511;-74
2023/12/08 01:41:22;;;;;;;11.32;9.43;;;;;;;;;;5041412;28;20056;-74
2023/12/08 01:43:51;;;;;;;15.25;9.50;;;;;;;;;;5041334;28;20598;-74
2023/12/08 01:46:23;;;;;;;12.02;9.27;;;;;;;;;;5042629;28;20048;-75
2023/12/08 01:48:54;;;;;;;19.98;10.80;;;;;;;;;;5042485;28;20056;-76
2023/12/08 01:51:25;;;;;;;10.52;9.45;;;;;;;;;;5042565;28;20059;-75
2023/12/08 01:53:55;;;;;;;11.73;10.45;;;;;;;;;;5041958;28;20045;-74
2023/12/08 01:56:27;;;;;;;14.77;13.50;;;;;;;;;;5041831;28;20589;-73
2023/12/08 01:58:58;;;;;;;11.20;10.25;;;;;;;;;;5041950;28;20051;-76
2023/12/08 02:01:30;;;;;;;11.85;10.75;;;;;;;;;;5041350;28;20049;-74
2023/12/08 02:04:00;;;;;;;12.73;11.38;;;;;;;;;;5041269;28;20053;-71
2023/12/08 02:06:30;;;;;;;11.65;10.48;;;;;;;;;;5041643;28;20052;-73
2023/12/08 02:09:01;;;;;;;11.13;8.23;;;;;;;;;;5041929;28;20060;-71
2023/12/08 02:11:32;;;;;;;16.73;15.48;;;;;;;;;;5041221;28;20412;-75
2023/12/08 02:14:03;;;;;;;14.02;12.68;;;;;;;;;;5041598;28;20048;-73
2023/12/08 02:16:40;;;;;;;13.35;10.15;;;;;;;;;;5040259;28;20048;-74
2023/12/08 02:19:14;;;;;;;12.50;9.07;;;;;;;;;;5040144;28;20048;-74
2023/12/08 02:21:44;;;;;;;13.40;8.68;;;;;;;;;;5040808;28;20041;-75
2023/12/08 02:24:19;;;;;;;11.52;10.32;;;;;;;;;;5041761;28;20049;-75
2023/12/08 02:26:50;;;;;;;11.05;10.15;;;;;;;;;;5041516;28;20056;-74
2023/12/08 02:29:20;;;;;;;11.32;10.32;;;;;;;;;;5040999;28;20052;-76
2023/12/08 02:32:09;;;;;;;11.88;10.70;;;;;;;;;;5041430;28;20062;-75
2023/12/08 02:34:41;;;;;;;12.13;10.23;;;;;;;;;;5041555;28;20044;-75
2023/12/08 02:37:15;;;;;;;9.02;7.70;;;;;;;;;;5041710;28;20060;-74
2023/12/08 02:39:48;;;;;;;9.55;8.50;;;;;;;;;;5040976;28;20061;-74
2023/12/08 02:42:19;;;;;;;12.18;10.98;;;;;;;;;;5042667;28;20049;-74
2023/12/08 02:44:50;;;;;;;13.95;9.00;;;;;;;;;;5044620;28;20052;-76
2023/12/08 02:47:20;;;;;;;10.88;9.32;;;;;;;;;;5045527;28;20059;-74
2023/12/08 02:49:51;;;;;;;9.52;7.82;;;;;;;;;;5045426;28;20514;-75
2023/12/08 02:52:22;;;;;;;9.85;8.85;;;;;;;;;;5045492;28;20051;-75
2023/12/08 02:54:52;;;;;;;8.98;8.00;;;;;;;;;;5045423;28;20080;-75
2023/12/08 02:57:22;;;;;;;9.50;8.65;;;;;;;;;;5045038;28;20060;-74
2023/12/08 02:59:53;;;;;;;14.18;12.32;;;;;;;;;;5045120;28;20423;-74
2023/12/08 03:02:23;;;;;;;10.05;9.15;;;;;;;;;;5045251;28;20056;-74
2023/12/08 03:04:54;;;;;;;14.15;8.90;;;;;;;;;;5043449;28;20044;-74
2023/12/08 03:07:26;;;;;;;12.10;8.38;;;;;;;;;;5045665;28;20519;-75
2023/12/08 03:09:57;;;;;;;12.90;10.40;;;;;;;;;;5043901;28;20052;-75
2023/12/08 03:12:26;;;;;;;8.50;7.70;;;;;;;;;;5044918;28;20053;-75
2023/12/08 03:14:57;;;;;;;13.57;8.27;;;;;;;;;;5045024;28;20060;-73
2023/12/08 03:17:28;;;;;;;10.18;8.63;;;;;;;;;;5044342;28;20060;-75
2023/12/08 03:19:59;;;;;;;11.60;7.07;;;;;;;;;;5044808;28;20499;-75
2023/12/08 03:22:29;;;;;;;8.43;7.70;;;;;;;;;;5043145;28;20049;-74
2023/12/08 03:24:59;;;;;;;9.95;7.88;;;;;;;;;;5044251;28;20047;-74
2023/12/08 03:27:30;;;;;;;10.57;9.57;;;;;;;;;;5044283;28;20366;-74
2023/12/08 03:30:00;;;;;;;12.60;7.70;;;;;;;;;;5042975;28;20057;-74
2023/12/08 03:32:31;;;;;;;12.93;8.90;;;;;;;;;;5044495;28;20055;-74
2023/12/08 03:35:03;;;;;;;9.20;8.45;;;;;;;;;;5045006;28;20120;-74
2023/12/08 03:37:33;;;;;;;11.02;8.88;;;;;;;;;;5043917;28;20467;-74
2023/12/08 03:40:06;;;;;;;13.13;9.23;;;;;;;;;;5045273;28;20531;-74
2023/12/08 03:42:36;;;;;;;10.57;7.82;;;;;;;;;;5044401;28;20045;-74
2023/12/08 03:45:07;;;;;;;13.02;8.75;;;;;;;;;;5043852;28;20049;-74
2023/12/08 03:47:37;;;;;;;17.27;10.02;;;;;;;;;;5044804;28;20530;-74
2023/12/08 03:50:08;;;;;;;12.70;8.00;;;;;;;;;;5043290;28;20067;-74
2023/12/08 03:52:39;;;;;;;14.35;9.85;;;;;;;;;;5043141;28;20067;-75
2023/12/08 03:55:10;;;;;;;10.68;8.75;;;;;;;;;;5043949;28;20053;-75
2023/12/08 03:57:41;;;;;;;13.07;9.30;;;;;;;;;;5044217;28;20067;-74
2023/12/08 04:00:11;;;;;;;9.20;8.27;;;;;;;;;;5043759;28;20510;-74
2023/12/08 04:02:42;;;;;;;10.63;8.90;;;;;;;;;;5043724;28;20531;-73
2023/12/08 04:05:12;;;;;;;9.95;9.05;;;;;;;;;;5044144;28;20052;-75
2023/12/08 04:07:43;;;;;;;11.18;10.13;;;;;;;;;;5043922;28;20048;-73
2023/12/08 04:10:12;;;;;;;10.00;8.60;;;;;;;;;;5043153;28;20048;-74
2023/12/08 04:12:43;;;;;;;9.57;8.60;;;;;;;;;;5043695;28;20040;-74
2023/12/08 04:15:14;;;;;;;11.23;7.38;;;;;;;;;;5043970;28;20049;-74
2023/12/08 04:17:44;;;;;;;9.23;8.18;;;;;;;;;;5041369;28;20538;-74
2023/12/08 04:20:14;;;;;;;10.02;8.38;;;;;;;;;;5043058;28;20057;-74
2023/12/08 04:22:45;;;;;;;10.65;8.63;;;;;;;;;;5041793;28;20103;-74
2023/12/08 04:25:15;;;;;;;10.98;7.80;;;;;;;;;;5043332;28;20531;-73
2023/12/08 04:27:46;;;;;;;9.25;8.38;;;;;;;;;;5044118;28;20049;-74
2023/12/08 04:30:15;;;;;;;9.38;7.93;;;;;;;;;;5043879;28;20041;-75
2023/12/08 04:32:46;;;;;;;10.43;8.57;;;;;;;;;;5043318;28;20048;-74
2023/12/08 04:35:16;;;;;;;9.80;7.07;;;;;;;;;;5043353;28;20643;-76
2023/12/08 04:37:48;;;;;;;9.73;8.35;;;;;;;;;;5041763;28;20049;-75
2023/12/08 04:40:18;;;;;;;9.80;7.07;;;;;;;;;;5042433;28;20516;-74
2023/12/08 04:42:48;;;;;;;9.32;8.55;;;;;;;;;;5042768;28;20059;-74
2023/12/08 04:45:18;;;;;;;10.20;8.50;;;;;;;;;;5041421;28;20053;-74
2023/12/08 04:47:48;;;;;;;9.13;7.93;;;;;;;;;;5042614;28;20056;-75
2023/12/08 04:50:19;;;;;;;10.57;7.57;;;;;;;;;;5041096;28;20542;-75
2023/12/08 04:52:49;;;;;;;10.07;9.15;;;;;;;;;;5042782;28;20507;-73
2023/12/08 04:55:19;;;;;;;13.05;8.88;;;;;;;;;;5042478;28;20041;-74
2023/12/08 04:57:50;;;;;;;13.63;8.65;;;;;;;;;;5042812;28;20527;-74
2023/12/08 05:00:21;;;;;;;14.27;9.52;;;;;;;;;;5042559;28;20758;-75
2023/12/08 05:02:50;;;;;;;11.40;7.43;;;;;;;;;;5043313;28;20056;-74
2023/12/08 05:05:20;;;;;;;11.27;7.25;;;;;;;;;;5042322;28;20546;-73
2023/12/08 05:07:51;;;;;;;9.82;7.53;;;;;;;;;;5042516;28;20060;-74
2023/12/08 05:10:21;;;;;;;12.57;9.63;;;;;;;;;;5042288;28;20060;-75
2023/12/08 05:12:52;;;;;;;9.68;8.63;;;;;;;;;;5042181;28;20480;-74
2023/12/08 05:15:23;;;;;;;10.57;7.65;;;;;;;;;;5042495;28;20049;-76
2023/12/08 05:17:54;;;;;;;12.65;8.43;;;;;;;;;;5042499;28;20049;-73
2023/12/08 05:20:25;;;;;;;14.57;8.93;;;;;;;;;;5042747;28;20053;-74
2023/12/08 05:22:58;;;;;;;19.77;8.48;;;;;;;;;;5041651;28;20053;-73
2023/12/08 05:25:28;;;;;;;11.38;10.20;;;;;;;;;;5040495;28;20049;-73
2023/12/08 05:27:58;;;;;;;10.77;8.73;;;;;;;;;;5042391;28;20056;-74
2023/12/08 05:30:29;;;;;;;14.43;9.07;;;;;;;;;;5042484;28;20063;-75
2023/12/08 05:33:00;;;;;;;12.85;9.45;;;;;;;;;;5042398;28;20052;-73
2023/12/08 05:35:30;;;;;;;9.73;8.75;;;;;;;;;;5041320;28;20052;-76
2023/12/08 05:37:59;;;;;;;12.98;7.65;;;;;;;;;;5042615;28;20041;-74
2023/12/08 05:40:30;;;;;;;10.88;9.45;;;;;;;;;;5042199;28;20504;-74
2023/12/08 05:43:01;;;;;;;14.65;13.27;;;;;;;;;;5041916;28;20409;-74
2023/12/08 05:45:32;;;;;;;12.20;8.95;;;;;;;;;;5041332;28;20052;-74
2023/12/08 05:48:02;;;;;;;11.00;9.38;;;;;;;;;;5041965;28;20041;-74
2023/12/08 05:50:32;;;;;;;10.40;9.43;;;;;;;;;;5042042;28;20099;-74
2023/12/08 05:53:03;;;;;;;12.98;11.95;;;;;;;;;;5040179;28;20751;-73
2023/12/08 05:55:33;;;;;;;9.00;8.20;;;;;;;;;;5041935;28;20067;-74
2023/12/08 05:58:03;;;;;;;13.50;9.45;;;;;;;;;;5041048;28;20049;-73
2023/12/08 06:00:34;;;;;;;13.82;12.50;;;;;;;;;;5041364;28;20416;-75
2023/12/08 06:03:04;;;;;;;13.18;8.82;;;;;;;;;;5042258;28;20051;-74
2023/12/08 06:05:35;;;;;;;9.65;8.95;;;;;;;;;;5040450;28;20111;-74
2023/12/08 06:08:05;;;;;;;9.82;9.18;;;;;;;;;;5041924;28;20618;-73
2023/12/08 06:10:35;;;;;;;14.27;8.48;;;;;;;;;;5041852;28;20049;-75
2023/12/08 06:13:06;;;;;;;11.70;10.80;;;;;;;;;;5040464;28;20423;-73
2023/12/08 06:15:35;;;;;;;13.95;12.77;;;;;;;;;;5041420;28;20416;-75
2023/12/08 06:18:06;;;;;;;8.85;8.02;;;;;;;;;;5041605;28;20053;-73
2023/12/08 06:20:37;;;;;;;14.82;12.57;;;;;;;;;;5042636;28;20412;-76
2023/12/08 06:23:08;;;;;;;11.40;8.10;;;;;;;;;;5041983;28;20041;-74
2023/12/08 06:25:39;;;;;;;15.10;9.02;;;;;;;;;;5041902;28;20052;-74
2023/12/08 06:28:09;;;;;;;9.50;8.63;;;;;;;;;;5042044;28;20053;-74
2023/12/08 06:30:39;;;;;;;9.75;8.82;;;;;;;;;;5041752;28;20044;-74
2023/12/08 06:33:09;;;;;;;9.60;8.38;;;;;;;;;;5041651;28;20056;-75
2023/12/08 06:35:40;;;;;;;12.43;11.52;;;;;;;;;;5041043;28;20408;-74
2023/12/08 06:38:10;;;;;;;10.70;8.55;;;;;;;;;;5041290;28;20508;-75
2023/12/08 06:40:41;;;;;;;10.40;8.82;;;;;;;;;;5040769;28;20055;-73
2023/12/08 06:43:11;;;;;;;10.52;9.63;;;;;;;;;;5041946;28;20048;-75
2023/12/08 06:45:42;;;;;;;11.98;7.95;;;;;;;;;;5041168;28;20045;-74
2023/12/08 06:48:12;;;;;;;11.82;9.95;;;;;;;;;;5040863;28;20048;-74
2023/12/08 06:50:42;;;;;;;10.77;7.97;;;;;;;;;;5040922;28;20061;-74
2023/12/08 06:53:13;;;;;;;8.95;8.18;;;;;;;;;;5039768;28;20049;-74
2023/12/08 06:55:44;;;;;;;14.40;13.15;;;;;;;;;;5041452;28;20408;-72
2023/12/08 06:58:15;;;;;;;12.45;8.05;;;;;;;;;;5040707;28;20045;-74
2023/12/08 07:00:45;;;;;;;11.00;9.93;;;;;;;;;;5042250;28;20064;-73
2023/12/08 07:03:15;;;;;;;11.43;8.55;;;;;;;;;;5041135;28;20049;-73
2023/12/08 07:05:45;;;;;;;13.63;8.93;;;;;;;;;;5040281;28;20056;-81
2023/12/08 07:08:18;;;;;;;18.92;10.75;;;;;;;;;;5040599;28;20500;-73
2023/12/08 07:10:47;;;;;;;12.82;8.45;;;;;;;;;;5040628;28;20049;-73
2023/12/08 07:13:18;;;;;;;10.35;9.18;;;;;;;;;;5040620;28;20130;-73
2023/12/08 07:15:47;;;;;;;11.27;8.77;;;;;;;;;;5040972;28;20527;-74
2023/12/08 07:18:17;;;;;;;13.93;8.63;;;;;;;;;;5023523;28;20060;-74
2023/12/08 07:20:50;;;;;;;15.90;9.05;;;;;;;;;;5039279;28;20068;-75
2023/12/08 07:23:20;;;;;;;11.75;10.73;;;;;;;;;;5041186;28;20049;-73
2023/12/08 07:25:51;;;;;;;13.60;9.85;;;;;;;;;;5041035;28;20530;-73
2023/12/08 07:28:21;;;;;;;16.60;10.40;;;;;;;;;;5042533;28;20048;-74
2023/12/08 07:30:51;;;;;;;11.70;9.60;;;;;;;;;;5044760;28;20500;-73
2023/12/08 07:33:21;;;;;;;14.57;13.05;;;;;;;;;;5044522;28;20800;-73
2023/12/08 07:35:52;;;;;;;14.05;9.60;;;;;;;;;;5044788;28;20679;-73
2023/12/08 07:38:23;;;;;;;17.42;14.52;;;;;;;;;;5044249;28;20436;-74
2023/12/08 07:40:53;;;;;;;10.52;8.57;;;;;;;;;;5045245;28;20049;-74
2023/12/08 07:43:23;;;;;;;13.45;8.88;;;;;;;;;;5044315;28;20052;-75
2023/12/08 07:45:53;;;;;;;17.92;8.95;;;;;;;;;;5044148;28;20052;-73
2023/12/08 07:48:25;;;;;;;11.98;9.68;;;;;;;;;;5043709;28;20060;-74
2023/12/08 07:50:55;;;;;;;12.82;10.00;;;;;;;;;;5043600;28;20048;-74
2023/12/08 07:53:26;;;;;;;19.80;10.13;;;;;;;;;;5043837;28;20049;-74
2023/12/08 07:55:57;;;;;;;13.38;9.80;;;;;;;;;;5043805;28;20086;-74
2023/12/08 07:58:27;;;;;;;17.92;9.80;;;;;;;;;;5042790;28;20052;-74
2023/12/08 08:00:57;;;;;;;14.90;8.93;;;;;;;;;;5027003;28;20512;-74
2023/12/08 08:03:29;;;;;;;14.98;8.80;;;;;;;;;;5043840;28;20049;-73
2023/12/08 08:06:00;;;;;;;12.40;9.15;;;;;;;;;;5043357;28;20508;-74
2023/12/08 08:08:32;;;;;;;12.88;9.45;;;;;;;;;;5044085;28;20049;-75
2023/12/08 08:11:03;;;;;;;11.07;10.10;;;;;;;;;;5043529;28;20056;-73
2023/12/08 08:13:33;;;;;;;10.68;8.95;;;;;;;;;;5043478;28;20484;-74
2023/12/08 08:16:04;;;;;;;12.32;9.07;;;;;;;;;;5043231;28;20045;-73
2023/12/08 08:18:34;;;;;;;15.75;13.43;;;;;;;;;;5043940;28;20607;-73
2023/12/08 08:21:05;;;;;;;9.93;8.48;;;;;;;;;;5043592;28;20367;-72
2023/12/08 08:23:35;;;;;;;14.63;10.52;;;;;;;;;;5043348;28;20041;-73
2023/12/08 08:26:06;;;;;;;17.15;10.60;;;;;;;;;;5043615;28;20056;-74
2023/12/08 08:28:38;;;;;;;14.20;10.85;;;;;;;;;;5043237;28;20060;-74
2023/12/08 08:31:09;;;;;;;13.45;10.27;;;;;;;;;;5043371;28;20052;-74
2023/12/08 08:33:39;;;;;;;13.80;12.40;;;;;;;;;;5043193;28;20512;-74
2023/12/08 08:36:10;;;;;;;11.48;10.13;;;;;;;;;;5042753;28;20544;-73
2023/12/08 08:38:41;;;;;;;14.10;10.30;;;;;;;;;;5042897;28;20064;-73
2023/12/08 08:41:12;;;;;;;18.38;11.38;;;;;;;;;;5042505;28;20051;-73
2023/12/08 08:43:43;;;;;;;12.68;10.98;;;;;;;;;;5041808;28;20049;-72
2023/12/08 08:46:13;;;;;;;15.73;10.85;;;;;;;;;;5043257;28;20053;-72
2023/12/08 08:48:44;;;;;;;11.98;9.02;;;;;;;;;;5042786;28;20049;-74
2023/12/08 08:51:16;;;;;;;16.77;9.25;;;;;;;;;;5042480;28;20064;-74
2023/12/08 08:53:47;;;;;;;10.93;10.00;;;;;;;;;;5042841;28;20052;-72
2023/12/08 08:56:18;;;;;;;14.63;11.00;;;;;;;;;;5044296;28;20049;-72
2023/12/08 08:58:49;;;;;;;13.88;11.85;;;;;;;;;;5043376;28;20052;-73
2023/12/08 09:01:19;;;;;;;15.93;10.80;;;;;;;;;;5042567;28;20055;-74
2023/12/08 09:03:49;;;;;;;13.57;12.27;;;;;;;;;;5042834;28;20045;-73
2023/12/08 09:06:19;;;;;;;12.77;10.65;;;;;;;;;;5043316;28;20049;-73
2023/12/08 09:08:50;;;;;;;12.20;11.00;;;;;;;;;;5043337;28;20056;-73
2023/12/08 09:11:21;;;;;;;14.02;11.13;;;;;;;;;;5041594;28;20064;-72
2023/12/08 09:13:52;;;;;;;11.90;9.90;;;;;;;;;;5042985;28;20060;-73
2023/12/08 09:16:23;;;;;;;11.80;10.55;;;;;;;;;;5042633;28;20053;-74
2023/12/08 09:18:52;;;;;;;12.15;11.02;;;;;;;;;;5042691;28;20056;-75
2023/12/08 09:21:23;;;;;;;11.18;10.20;;;;;;;;;;5042462;28;20053;-74
2023/12/08 09:23:53;;;;;;;14.43;10.25;;;;;;;;;;5042521;28;20069;-75
2023/12/08 09:26:23;;;;;;;20.00;12.10;;;;;;;;;;5041571;28;20052;-74
2023/12/08 09:28:54;;;;;;;10.98;10.00;;;;;;;;;;5042969;28;20049;-73
2023/12/08 09:31:24;;;;;;;13.10;10.57;;;;;;;;;;5042717;28;20056;-74
2023/12/08 09:33:56;;;;;;;11.55;9.75;;;;;;;;;;5042383;28;20056;-74
2023/12/08 09:36:27;;;;;;;14.40;9.65;;;;;;;;;;5042109;28;20500;-73
2023/12/08 09:38:57;;;;;;;10.25;9.25;;;;;;;;;;5042231;28;20792;-73
2023/12/08 09:41:28;;;;;;;12.20;9.07;;;;;;;;;;5041676;28;20068;-74
2023/12/08 09:43:59;;;;;;;13.10;8.23;;;;;;;;;;5040961;28;20048;-73
2023/12/08 09:46:34;;;;;;;13.52;10.57;;;;;;;;;;5042644;28;20052;-73
2023/12/08 09:49:10;;;;;;;11.15;9.43;;;;;;;;;;5025044;28;20526;-73
2023/12/08 09:51:41;;;;;;;15.25;9.13;;;;;;;;;;5041654;28;20060;-74
2023/12/08 09:54:12;;;;;;;20.27;17.48;;;;;;;;;;5042316;28;20041;-73
2023/12/08 09:56:44;;;;;;;15.18;10.35;;;;;;;;;;5042965;28;20044;-75
2023/12/08 09:59:16;;;;;;;15.95;8.98;;;;;;;;;;5042552;28;20064;-73
2023/12/08 10:01:47;;;;;;;20.75;10.15;;;;;;;;;;5042491;28;20045;-75
2023/12/08 10:04:18;;;;;;;17.77;10.73;;;;;;;;;;5042484;28;20055;-74
2023/12/08 10:06:50;;;;;;;13.15;10.18;;;;;;;;;;5041891;28;20045;-74
2023/12/08 10:09:22;;;;;;;16.35;12.65;;;;;;;;;;5041862;28;20048;-74
2023/12/08 10:11:52;;;;;;;12.80;11.52;;;;;;;;;;5041358;28;20060;-77
2023/12/08 10:14:25;;;;;;;15.02;9.70;;;;;;;;;;5040718;28;20072;-73
2023/12/08 10:16:56;;;;;;;15.25;10.63;;;;;;;;;;5041552;28;20566;-73
2023/12/08 10:19:26;;;;;;;14.45;12.05;;;;;;;;;;5040481;28;20047;-73
2023/12/08 10:22:03;;;;;;;22.30;14.63;;;;;;;;;;5040803;28;20404;-73
2023/12/08 10:24:35;;;;;;;12.60;10.43;;;;;;;;;;5043009;28;20531;-73
2023/12/08 10:27:05;;;;;;;14.20;11.40;;;;;;;;;;5040986;28;20049;-76
2023/12/08 10:29:37;;;;;;;10.63;9.60;;;;;;;;;;5041327;28;20056;-82
2023/12/08 10:32:07;;;;;;;22.33;14.05;;;;;;;;;;5041333;28;20044;-76
2023/12/08 10:34:39;;;;;;;17.15;8.45;;;;;;;;;;5041549;28;20053;-75
2023/12/08 10:37:10;;;;;;;8.90;7.45;;;;;;;;;;5040569;28;20053;-78
2023/12/08 10:39:40;;;;;;;15.15;8.27;;;;;;;;;;5039749;28;20064;-73
2023/12/08 10:42:10;;;;;;;14.25;8.25;;;;;;;;;;5041346;28;20048;-72
2023/12/08 10:44:46;;;;;;;21.30;13.55;;;;;;;;;;5041571;28;20411;-73
2023/12/08 10:47:20;;;;;;;9.30;8.20;;;;;;;;;;5040226;28;20060;-76
2023/12/08 10:49:52;;;;;;;12.05;6.07;;;;;;;;;;5041625;28;20045;-80
2023/12/08 10:52:22;;;;;;;6.88;6.25;;;;;;;;;;5042277;28;20057;-76
2023/12/08 10:54:52;;;;;;;13.15;7.80;;;;;;;;;;5041439;28;20048;-73
2023/12/08 10:57:25;;;;;;;16.15;7.75;;;;;;;;;;5040498;28;20049;-74
2023/12/08 11:00:04;;;;;;;9.25;6.75;;;;;;;;;;5039852;28;20546;-75
2023/12/08 11:02:35;;;;;;;10.15;7.63;;;;;;;;;;5041662;28;20053;-74
2023/12/08 11:05:09;;;;;;;8.20;7.55;;;;;;;;;;5045262;28;20054;-78
2023/12/08 11:07:45;;;;;;;7.78;6.32;;;;;;;;;;5043988;28;20500;-75
2023/12/08 11:10:18;;;;;;;10.70;7.10;;;;;;;;;;5044998;28;20076;-74
2023/12/08 11:13:04;;;;;;;12.55;8.18;;;;;;;;;;5045522;28;20049;-75
2023/12/08 11:15:39;;;;;;;9.50;7.78;;;;;;;;;;5044563;28;20048;-73
2023/12/08 11:18:26;;;;;;;13.10;8.60;;;;;;;;;;5044897;28;20053;-76
2023/12/08 11:20:57;;;;;;;;;;;;;;;;;;5045271;28;20049;-76
2023/12/08 11:23:27;;;;;;;11.95;10.75;;;;;;;;;;5044792;28;19928;-75
2023/12/08 11:26:35;;;;;;;17.63;12.18;;;;;;;;;;5043380;28;20051;-73
2023/12/08 11:29:34;;;;;;;15.02;10.75;;;;;;;;;;5043341;28;20049;-74
2023/12/08 11:32:26;;;;;;;9.93;8.30;;;;;;;;;;5044558;28;20052;-74
2023/12/08 11:35:05;;;;;;;11.38;10.18;;;;;;;;;;5044644;28;20048;-74
2023/12/08 11:37:35;;;;;;;11.30;9.57;;;;;;;;;;5045007;28;20049;-73
2023/12/08 11:40:07;;;;;;;12.63;10.73;;;;;;;;;;5044725;28;20091;-73
2023/12/08 11:42:40;;;;;;;7.85;6.35;;;;;;;;;;5043011;28;20057;-73
2023/12/08 11:45:12;;;;;;;10.90;9.77;;;;;;;;;;5044294;28;20041;-73
2023/12/08 11:47:43;;;;;;;11.60;9.57;;;;;;;;;;5044310;28;20053;-75
2023/12/08 11:50:13;;;;;;;16.17;9.05;;;;;;;;;;5044075;28;20504;-73
2023/12/08 11:52:44;;;;;;;9.55;7.38;;;;;;;;;;5044497;28;20064;-73
2023/12/08 11:55:24;;;;;;;13.63;8.20;;;;;;;;;;5044933;28;20056;-74
2023/12/08 11:58:03;;;;;;;7.95;7.25;;;;;;;;;;5044174;28;20061;-74
2023/12/08 12:00:38;;;;;;;12.50;6.95;;;;;;;;;;5042537;28;20052;-73
2023/12/08 12:03:11;;;;;;;7.85;7.10;;;;;;;;;;5042832;28;20056;-74
2023/12/08 12:05:43;;;;;;;9.25;8.35;;;;;;;;;;5043743;28;20053;-76
2023/12/08 12:08:14;;;;;;;12.52;11.23;;;;;;;;;;5044554;28;20056;-73
2023/12/08 12:10:47;;;;;;;16.02;14.65;;;;;;;;;;5043893;28;20052;-74
2023/12/08 12:13:20;;;;;;;15.75;13.68;;;;;;;;;;5043654;28;20532;-81
2023/12/08 12:15:54;;;;;;;11.88;10.68;;;;;;;;;;5043875;28;20041;-73
2023/12/08 12:18:25;;;;;;;12.80;11.45;;;;;;;;;;5043714;28;20048;-74
2023/12/08 12:20:55;;;;;;;11.32;10.27;;;;;;;;;;5043139;28;20049;-75
2023/12/08 12:23:27;;;;;;;8.68;7.85;;;;;;;;;;5044382;28;20500;-74
2023/12/08 12:25:57;;;;;;;13.82;12.63;;;;;;;;;;5043445;28;20056;-73
2023/12/08 12:28:27;;;;;;;14.27;12.82;;;;;;;;;;5043464;28;20052;-74
2023/12/08 12:31:02;;;;;;;8.55;7.85;;;;;;;;;;5044099;28;20041;-73
2023/12/08 12:33:33;;;;;;;15.55;14.10;;;;;;;;;;5044103;28;20060;-74
2023/12/08 12:36:05;;;;;;;10.13;8.88;;;;;;;;;;5042491;28;20056;-73
2023/12/08 12:38:38;;;;;;;15.60;14.15;;;;;;;;;;5043248;28;20440;-74
2023/12/08 12:41:25;;;;;;;10.25;9.02;;;;;;;;;;5044009;28;20056;-72
2023/12/08 12:43:57;;;;;;;12.73;9.73;;;;;;;;;;5043374;28;20049;-74
2023/12/08 12:46:28;;;;;;;11.90;10.77;;;;;;;;;;5043829;28;20056;-73
2023/12/08 12:48:59;;;;;;;8.48;7.70;;;;;;;;;;5043503;28;20053;-74
2023/12/08 12:51:41;;;;;;;17.38;15.93;;;;;;;;;;5044350;28;20393;-78
2023/12/08 12:54:15;;;;;;;9.57;8.63;;;;;;;;;;5044606;28;20049;-73
2023/12/08 12:56:50;;;;;;;19.52;17.83;;;;;;;;;;5043980;28;20419;-73
2023/12/08 12:59:20;;;;;;;12.10;11.10;;;;;;;;;;5043086;28;20044;-74
2023/12/08 13:01:50;;;;;;;11.75;10.30;;;;;;;;;;5043171;28;20040;-74
2023/12/08 13:04:28;;;;;;;7.13;4.13;;;;;;;;;;5044015;28;20571;-75
2023/12/08 13:06:59;;;;;;;10.77;4.78;;;;;;;;;;5042947;28;20503;-75
2023/12/08 13:09:30;;;;;;;8.23;3.80;;;;;;;;;;5042661;28;20052;-73
2023/12/08 13:12:01;;;;;;;7.80;4.57;;;;;;;;;;5042611;28;20625;-75
2023/12/08 13:14:31;;;;;;;7.72;6.78;;;;;;;;;;5043088;28;20052;-74
2023/12/08 13:17:05;;;;;;;9.27;8.43;;;;;;;;;;5042960;28;20530;-78
2023/12/08 13:19:36;;;;;;;8.07;5.85;;;;;;;;;;5043814;28;20492;-73
2023/12/08 13:22:05;;;;;;;8.07;6.88;;;;;;;;;;5043572;28;20526;-74
2023/12/08 13:24:36;;;;;;;9.02;7.25;;;;;;;;;;5043185;28;20823;-73
2023/12/08 13:27:07;;;;;;;9.13;8.35;;;;;;;;;;5042161;28;20049;-73
2023/12/08 13:29:38;;;;;;;8.25;6.60;;;;;;;;;;5042660;28;20508;-75
2023/12/08 13:32:08;;;;;;;25.10;8.95;;;;;;;;;;5042870;28;20053;-79
2023/12/08 13:34:38;;;;;;;6.85;5.85;;;;;;;;;;5040587;28;20534;-73
2023/12/08 13:37:08;;;;;;;7.75;6.00;;;;;;;;;;5042986;28;20052;-73
2023/12/08 13:39:39;;;;;;;10.65;5.32;;;;;;;;;;5041461;28;20072;-72
2023/12/08 13:42:09;;;;;;;7.65;5.65;;;;;;;;;;5042582;28;20052;-73
2023/12/08 13:44:39;;;;;;;7.30;5.90;;;;;;;;;;5041136;28;20048;-73
2023/12/08 13:47:09;;;;;;;7.00;5.22;;;;;;;;;;5042042;28;20048;-73
2023/12/08 13:49:46;;;;;;;6.53;5.80;;;;;;;;;;5042222;28;20041;-74
2023/12/08 13:52:17;;;;;;;10.80;7.07;;;;;;;;;;5042683;28;20060;-76
2023/12/08 13:54:48;;;;;;;7.18;6.45;;;;;;;;;;5042239;28;20045;-74
2023/12/08 13:57:17;;;;;;;8.65;7.35;;;;;;;;;;5042170;28;20060;-74
2023/12/08 13:59:48;;;;;;;8.35;5.70;;;;;;;;;;5042137;28;20072;-74
2023/12/08 14:02:18;;;;;;;5.65;5.10;;;;;;;;;;5041770;28;20515;-76
2023/12/08 14:04:50;;;;;;;9.20;5.07;;;;;;;;;;5041763;28;20052;-73
2023/12/08 14:07:20;;;;;;;8.60;5.45;;;;;;;;;;5042203;28;20057;-73
2023/12/08 14:09:50;;;;;;;7.85;5.20;;;;;;;;;;5041840;28;20044;-74
2023/12/08 14:12:21;;;;;;;7.35;5.00;;;;;;;;;;5041607;28;20910;-74
2023/12/08 14:14:52;;;;;;;7.60;5.82;;;;;;;;;;5041208;28;20056;-74
2023/12/08 14:17:23;;;;;;;8.82;7.78;;;;;;;;;;5041590;28;20406;-73
2023/12/08 14:19:54;;;;;;;9.98;6.43;;;;;;;;;;5042235;28;20045;-73
2023/12/08 14:22:26;;;;;;;12.10;9.32;;;;;;;;;;5040277;28;20538;-73
2023/12/08 14:25:00;;;;;;;19.77;18.02;;;;;;;;;;5042206;28;20041;-73
2023/12/08 14:27:31;;;;;;;14.98;13.63;;;;;;;;;;5041786;28;20589;-73
2023/12/08 14:30:08;;;;;;;6.88;6.18;;;;;;;;;;5041856;28;20056;-73
2023/12/08 14:32:39;;;;;;;14.07;10.35;;;;;;;;;;5041543;28;20049;-73
2023/12/08 14:35:10;;;;;;;7.95;6.25;;;;;;;;;;5041948;28;20048;-74
2023/12/08 14:37:55;;;;;;;9.85;5.80;;;;;;;;;;5043109;28;20049;-79
2023/12/08 14:40:25;;;;;;;12.40;11.30;;;;;;;;;;5046403;28;20401;-76
2023/12/08 14:42:56;;;;;;;11.30;8.70;;;;;;;;;;5046464;28;20041;-76
2023/12/08 14:45:27;;;;;;;10.13;9.40;;;;;;;;;;5045235;28;20422;-75
2023/12/08 14:48:00;;;;;;;7.85;3.70;;;;;;;;;;5045403;28;20052;-75
2023/12/08 14:50:30;;;;;;;14.05;9.98;;;;;;;;;;5046233;28;20052;-78
2023/12/08 14:53:02;;;;;;;11.40;7.97;;;;;;;;;;5045875;28;20055;-76